Time;durP1;ratioP1;P1;durP2;ratioP2;P2;SDS_P1;SDS_P2;PMS_P1;PMS_P2;Temp;Humidity;BMP_temperature;BMP_pressure;BME280_temperature;BME280_humidity;BME280_pressure;Samples;Min_cycle;Max_cycle;Signal;HPM_P1;HPM_P2
2023/12/19 00:00:48;;;;;;;1.52;1.42;;;1.10;1.00;;;;;;5032197;28;20418;-80
2023/12/19 00:03:14;;;;;;;5.53;1.88;;;1.00;1.00;;;;;;5031514;28;20462;-80
2023/12/19 00:05:41;;;;;;;1.55;1.45;;;1.10;1.00;;;;;;5031486;28;20498;-80
2023/12/19 00:08:10;;;;;;;7.55;2.22;;;1.10;1.00;;;;;;5033254;28;20044;-80
2023/12/19 00:10:36;;;;;;;1.80;1.65;;;1.10;1.00;;;;;;5032001;28;20045;-80
2023/12/19 00:13:02;;;;;;;1.80;1.70;;;1.10;1.00;;;;;;5031561;28;20045;-80
2023/12/19 00:15:28;;;;;;;0.93;0.93;;;1.10;1.00;;;;;;5031016;28;20044;-80
2023/12/19 00:17:55;;;;;;;3.05;2.65;;;1.20;1.00;;;;;;5032498;28;20368;-81
2023/12/19 00:20:21;;;;;;;0.75;0.75;;;1.10;1.00;;;;;;5027874;28;20076;-80
2023/12/19 00:22:47;;;;;;;3.75;1.60;;;1.10;1.00;;;;;;5028981;28;20612;-80
2023/12/19 00:25:13;;;;;;;2.08;1.95;;;1.20;1.00;;;;;;5027964;28;20037;-80
2023/12/19 00:27:40;;;;;;;1.35;1.25;;;1.30;1.00;;;;;;5031508;28;20029;-80
2023/12/19 00:30:06;;;;;;;3.65;1.45;;;1.30;1.00;;;;;;5027802;28;20033;-81
2023/12/19 00:32:33;;;;;;;1.92;1.83;;;1.30;1.00;;;;;;5036467;28;20380;-80
2023/12/19 00:34:59;;;;;;;1.92;1.83;;;1.30;99.90;;;;;;5028024;28;20382;-81
2023/12/19 00:37:25;;;;;;;3.63;3.05;;;1.20;99.90;;;;;;5032626;28;20409;-79
2023/12/19 00:39:51;;;;;;;3.13;2.92;;;1.20;99.90;;;;;;5029624;28;20041;-81
2023/12/19 00:42:17;;;;;;;1.45;1.35;;;1.30;99.90;;;;;;5053509;28;20033;-80
2023/12/19 00:44:43;;;;;;;2.33;2.22;;;1.20;99.90;;;;;;5039532;28;20029;-80
2023/12/19 00:47:09;;;;;;;1.35;1.25;;;1.30;99.90;;;;;;5030641;28;20044;-80
2023/12/19 00:49:36;;;;;;;1.08;1.08;;;1.30;99.90;;;;;;5030724;28;20041;-79
2023/12/19 00:52:02;;;;;;;1.92;1.83;;;1.30;99.90;;;;;;5035903;28;20041;-80
2023/12/19 00:54:28;;;;;;;3.00;2.75;;;1.30;99.90;;;;;;5029549;28;20041;-78
2023/12/19 00:56:55;;;;;;;2.40;1.60;;;1.30;99.90;;;;;;5034741;28;20030;-80
2023/12/19 00:59:21;;;;;;;1.48;0.85;;;1.30;99.90;;;;;;5035910;28;20034;-80
2023/12/19 01:01:47;;;;;;;1.60;1.40;;;1.40;99.90;;;;;;5034268;28;20300;-81
2023/12/19 01:04:13;;;;;;;1.90;1.73;;;1.60;99.90;;;;;;5045253;28;20041;-81
2023/12/19 01:06:40;;;;;;;0.80;0.80;;;1.60;99.90;;;;;;5028493;28;20038;-81
2023/12/19 01:09:09;;;;;;;2.00;1.75;;;1.50;99.90;;;;;;5049838;28;20038;-81
2023/12/19 01:11:36;;;;;;;2.28;2.17;;;1.30;99.90;;;;;;5041289;28;20064;-80
2023/12/19 01:14:03;;;;;;;2.10;2.00;;;1.30;99.90;;;;;;5045599;28;20034;-81
2023/12/19 01:16:29;;;;;;;1.80;1.17;;;1.20;99.90;;;;;;5031819;28;20022;-79
2023/12/19 01:18:55;;;;;;;1.38;1.27;;;1.10;99.90;;;;;;5042549;28;20030;-81
2023/12/19 01:21:22;;;;;;;1.95;1.65;;;1.00;99.90;;;;;;5034233;28;20046;-80
2023/12/19 01:23:48;;;;;;;0.60;0.60;;;0.90;99.90;;;;;;5033296;28;20614;-81
2023/12/19 01:26:14;;;;;;;2.17;1.98;;;0.80;99.90;;;;;;5026706;28;20041;-81
2023/12/19 01:28:40;;;;;;;1.55;1.48;;;0.70;99.90;;;;;;5046455;28;20037;-81
2023/12/19 01:31:06;;;;;;;2.15;1.95;;;0.60;99.90;;;;;;5033466;28;20040;-81
2023/12/19 01:33:33;;;;;;;0.50;0.50;;;0.60;99.90;;;;;;5034495;28;20045;-80
2023/12/19 01:35:59;;;;;;;3.03;1.70;;;0.50;99.90;;;;;;5031298;28;20034;-82
2023/12/19 01:38:25;;;;;;;2.08;1.63;;;0.40;99.90;;;;;;5035704;28;20235;-81
2023/12/19 01:40:52;;;;;;;4.57;1.73;;;0.40;99.90;;;;;;5033142;28;20029;-81
2023/12/19 01:43:20;;;;;;;1.67;1.58;;;0.40;1.00;;;;;;5042668;28;20037;-80
2023/12/19 01:45:46;;;;;;;6.97;2.33;;;0.40;1.00;;;;;;5058837;28;20032;-80
2023/12/19 01:48:17;;;;;;;1.13;1.05;;;0.50;1.00;;;;;;5059664;28;20017;-80
2023/12/19 01:50:43;;;;;;;3.17;2.95;;;0.50;1.00;;;;;;5057891;28;20017;-78
2023/12/19 01:53:10;;;;;;;1.48;1.45;;;0.50;1.00;;;;;;5036153;28;20485;-81
2023/12/19 01:55:38;;;;;;;0.90;0.90;;;0.50;1.00;;;;;;5039436;28;20036;-81
2023/12/19 01:58:06;;;;;;;1.08;1.02;;;0.40;1.00;;;;;;5032769;28;20025;-81
2023/12/19 02:00:34;;;;;;;1.35;1.27;;;0.40;1.00;;;;;;5033067;28;20040;-80
2023/12/19 02:03:00;;;;;;;1.83;1.73;;;0.40;1.00;;;;;;5029074;28;20475;-81
2023/12/19 02:05:27;;;;;;;0.55;0.55;;;0.50;1.00;;;;;;5033594;28;20032;-81
2023/12/19 02:07:53;;;;;;;0.95;0.82;;;0.50;1.00;;;;;;5030622;28;20029;-81
2023/12/19 02:10:19;;;;;;;1.95;1.85;;;0.40;1.00;;;;;;5035142;28;20030;-81
2023/12/19 02:12:45;;;;;;;3.17;2.47;;;0.30;1.00;;;;;;5031109;28;20082;-81
2023/12/19 02:15:12;;;;;;;3.38;1.60;;;0.20;99.90;;;;;;5036713;28;20034;-80
2023/12/19 02:17:42;;;;;;;0.75;0.45;;;0.00;99.90;;;;;;5032467;28;20101;-81
2023/12/19 02:20:08;;;;;;;6.70;2.20;;;-0.10;99.90;;;;;;5035233;28;20046;-80
2023/12/19 02:22:35;;;;;;;2.63;1.70;;;-0.20;99.90;;;;;;5035513;28;20053;-80
2023/12/19 02:25:01;;;;;;;1.60;1.50;;;-0.30;1.00;;;;;;5034223;28;20045;-81
2023/12/19 02:27:27;;;;;;;4.57;1.38;;;-0.40;1.00;;;;;;5037206;28;20038;-81
2023/12/19 02:29:53;;;;;;;0.82;0.65;;;-0.40;1.00;;;;;;5033923;28;20033;-81
2023/12/19 02:32:20;;;;;;;4.93;1.95;;;-0.40;1.00;;;;;;5032831;28;20041;-80
2023/12/19 02:34:48;;;;;;;1.23;1.08;;;-0.60;1.00;;;;;;5029886;28;20051;-80
2023/12/19 02:37:14;;;;;;;0.22;0.22;;;-0.60;1.00;;;;;;5031643;28;20037;-81
2023/12/19 02:39:40;;;;;;;2.25;1.83;;;-0.60;1.00;;;;;;5031624;28;20030;-81
2023/12/19 02:42:06;;;;;;;0.75;0.75;;;-0.70;1.00;;;;;;5031633;28;20052;-80
2023/12/19 02:44:32;;;;;;;1.17;1.17;;;-0.70;1.00;;;;;;5031592;28;20036;-81
2023/12/19 02:46:59;;;;;;;0.98;0.95;;;-0.70;13.60;;;;;;5037856;28;20499;-80
2023/12/19 02:49:25;;;;;;;1.35;0.90;;;-0.80;11.50;;;;;;5032234;28;20041;-80
2023/12/19 02:51:52;;;;;;;1.50;1.38;;;-0.80;14.80;;;;;;5037165;28;20637;-80
2023/12/19 02:54:18;;;;;;;4.68;1.45;;;-0.80;34.20;;;;;;5028599;28;20060;-80
2023/12/19 02:56:44;;;;;;;2.83;1.38;;;-0.80;55.20;;;;;;5047658;28;20049;-82
2023/12/19 02:59:10;;;;;;;1.65;1.55;;;-0.80;83.10;;;;;;5031827;28;20375;-83
2023/12/19 03:01:36;;;;;;;0.73;0.73;;;-0.90;91.50;;;;;;5023380;28;20101;-82
2023/12/19 03:04:03;;;;;;;1.98;1.77;;;-0.90;96.40;;;;;;5033123;28;20037;-83
2023/12/19 03:06:29;;;;;;;1.42;1.33;;;-0.90;97.90;;;;;;5027839;28;20048;-82
2023/12/19 03:08:57;;;;;;;1.27;0.98;;;-1.00;99.90;;;;;;5035829;28;20049;-83
2023/12/19 03:11:24;;;;;;;0.80;0.80;;;-0.90;99.90;;;;;;5033439;28;20026;-83
2023/12/19 03:13:50;;;;;;;1.98;1.80;;;-0.80;99.90;;;;;;5030999;28;20034;-82
2023/12/19 03:16:16;;;;;;;1.17;1.08;;;-0.90;99.90;;;;;;5031398;28;20045;-83
2023/12/19 03:18:42;;;;;;;2.40;1.33;;;-0.90;99.90;;;;;;5047699;28;20030;-82
2023/12/19 03:21:08;;;;;;;1.65;1.55;;;-0.90;99.90;;;;;;5052536;28;20072;-80
2023/12/19 03:23:34;;;;;;;0.75;0.75;;;-1.00;99.90;;;;;;5037416;28;20045;-83
2023/12/19 03:26:01;;;;;;;0.93;0.93;;;-1.00;99.90;;;;;;5032275;28;20511;-83
2023/12/19 03:28:27;;;;;;;1.65;0.95;;;-0.90;99.90;;;;;;5046839;28;20483;-83
2023/12/19 03:30:53;;;;;;;2.95;0.77;;;-1.00;99.90;;;;;;5031792;28;20604;-83
2023/12/19 03:33:20;;;;;;;0.20;0.20;;;-1.10;99.90;;;;;;5022466;28;20059;-83
2023/12/19 03:35:46;;;;;;;0.55;0.55;;;-1.00;99.90;;;;;;5027970;28;20041;-83
2023/12/19 03:38:12;;;;;;;2.00;1.17;;;-1.10;99.90;;;;;;5038028;28;20037;-83
2023/12/19 03:40:38;;;;;;;5.60;4.22;;;-1.10;99.90;;;;;;5036171;28;20042;-83
2023/12/19 03:43:05;;;;;;;3.33;2.17;;;-1.20;97.10;;;;;;5027073;28;20042;-83
2023/12/19 03:45:31;;;;;;;2.20;1.88;;;-1.20;99.90;;;;;;5038440;28;20021;-83
2023/12/19 03:47:57;;;;;;;4.00;3.70;;;-1.20;99.90;;;;;;5031772;28;20486;-83
2023/12/19 03:50:23;;;;;;;10.80;7.90;;;-1.30;99.90;;;;;;5033646;28;20034;-83
2023/12/19 03:52:49;;;;;;;8.43;5.03;;;-1.30;99.90;;;;;;5035655;28;20050;-83
2023/12/19 03:55:16;;;;;;;5.90;4.30;;;-1.40;99.90;;;;;;5039340;28;20033;-82
2023/12/19 03:57:42;;;;;;;3.28;1.95;;;-1.40;99.90;;;;;;5046900;28;20030;-82
2023/12/19 04:00:08;;;;;;;3.53;1.90;;;-1.40;99.90;;;;;;5050174;28;20041;-82
2023/12/19 04:02:35;;;;;;;1.45;1.35;;;-1.40;99.90;;;;;;5047969;28;20033;-81
2023/12/19 04:05:01;;;;;;;1.73;1.63;;;-1.40;99.90;;;;;;5041100;28;20049;-82
2023/12/19 04:07:27;;;;;;;2.17;2.03;;;-1.40;99.90;;;;;;5026401;28;20040;-82
2023/12/19 04:09:53;;;;;;;1.05;0.95;;;-1.30;99.90;;;;;;5027124;28;20030;-82
2023/12/19 04:12:19;;;;;;;24.85;1.55;;;-1.40;99.90;;;;;;5030035;28;20045;-82
2023/12/19 04:14:45;;;;;;;0.75;0.75;;;-1.30;99.90;;;;;;5031787;28;20052;-82
2023/12/19 04:17:13;;;;;;;1.35;1.25;;;-1.40;99.90;;;;;;5030890;28;20032;-82
2023/12/19 04:19:39;;;;;;;1.98;0.88;;;-1.40;99.90;;;;;;5027146;28;20037;-82
2023/12/19 04:22:06;;;;;;;1.65;1.23;;;-1.50;99.90;;;;;;5042405;28;20057;-82
2023/12/19 04:24:32;;;;;;;1.73;1.63;;;-1.50;99.90;;;;;;5029304;28;20029;-82
2023/12/19 04:26:58;;;;;;;3.10;2.78;;;-1.50;99.90;;;;;;5054818;28;20044;-82
2023/12/19 04:29:24;;;;;;;4.93;1.92;;;-1.50;99.90;;;;;;5041029;28;20038;-82
2023/12/19 04:31:50;;;;;;;0.30;0.30;;;-1.50;99.90;;;;;;5038722;28;20037;-82
2023/12/19 04:34:16;;;;;;;1.27;1.17;;;-1.40;99.90;;;;;;5044059;28;20053;-82
2023/12/19 04:36:43;;;;;;;0.65;0.65;;;-1.40;99.90;;;;;;5028478;28;20048;-82
2023/12/19 04:39:09;;;;;;;1.38;1.27;;;-1.40;99.90;;;;;;5029336;28;20029;-82
2023/12/19 04:41:37;;;;;;;5.45;1.40;;;-1.40;99.90;;;;;;5027345;28;20029;-81
2023/12/19 04:44:04;;;;;;;1.58;1.27;;;-1.40;99.90;;;;;;5028540;28;20398;-82
2023/12/19 04:46:30;;;;;;;1.38;1.27;;;-1.40;99.90;;;;;;5045431;28;20033;-82
2023/12/19 04:48:56;;;;;;;6.60;2.88;;;-1.40;99.90;;;;;;5029118;28;20625;-82
2023/12/19 04:51:22;;;;;;;0.98;0.95;;;-1.40;99.90;;;;;;5029324;28;20487;-82
2023/12/19 04:53:49;;;;;;;1.95;1.42;;;-1.50;99.90;;;;;;5013202;28;20056;-82
2023/12/19 04:56:16;;;;;;;0.57;0.57;;;-1.50;99.90;;;;;;5029715;28;20048;-83
2023/12/19 04:58:44;;;;;;;0.57;0.57;;;-1.50;99.90;;;;;;5009826;28;20033;-82
2023/12/19 05:01:11;;;;;;;1.60;1.50;;;-1.40;99.90;;;;;;5031255;28;20030;-82
2023/12/19 05:03:39;;;;;;;0.68;0.68;;;-1.30;99.90;;;;;;5031001;28;20136;-81
2023/12/19 05:06:07;;;;;;;1.58;1.48;;;-1.20;99.90;;;;;;5037010;28;20046;-83
2023/12/19 05:08:34;;;;;;;0.38;0.38;;;-1.20;99.90;;;;;;5031456;28;20038;-82
2023/12/19 05:11:00;;;;;;;3.28;3.00;;;-1.30;99.90;;;;;;5027525;28;20037;-83
2023/12/19 05:13:26;;;;;;;2.05;1.85;;;-1.30;99.90;;;;;;5029005;28;20057;-82
2023/12/19 05:15:52;;;;;;;1.42;1.20;;;-1.30;99.90;;;;;;5026846;28;20041;-83
2023/12/19 05:18:19;;;;;;;0.90;0.90;;;-1.30;99.90;;;;;;5033818;28;20040;-83
2023/12/19 05:20:45;;;;;;;1.75;1.65;;;-1.30;99.90;;;;;;5028997;28;20041;-82
2023/12/19 05:23:11;;;;;;;1.70;0.85;;;-1.30;99.90;;;;;;5034427;28;20040;-82
2023/12/19 05:25:37;;;;;;;3.05;1.75;;;-1.30;99.90;;;;;;5032178;28;20474;-81
2023/12/19 05:28:04;;;;;;;1.85;1.75;;;-1.20;99.90;;;;;;5033380;28;20030;-82
2023/12/19 05:30:30;;;;;;;5.93;0.95;;;-1.30;99.90;;;;;;5027785;28;20041;-82
2023/12/19 05:32:56;;;;;;;1.65;1.52;;;-1.30;99.90;;;;;;5031697;28;20060;-82
2023/12/19 05:35:23;;;;;;;1.60;1.52;;;-1.40;97.40;;;;;;5031130;28;20026;-83
2023/12/19 05:37:50;;;;;;;1.67;1.58;;;-1.40;92.00;;;;;;5049951;28;20493;-83
2023/12/19 05:40:17;;;;;;;1.08;0.93;;;-1.40;96.10;;;;;;5033785;28;20037;-82
2023/12/19 05:42:43;;;;;;;0.90;0.90;;;-1.40;97.10;;;;;;5032863;28;20041;-82
2023/12/19 05:45:10;;;;;;;4.35;2.58;;;-1.50;82.20;;;;;;5030680;28;20386;-82
2023/12/19 05:47:39;;;;;;;5.20;1.02;;;-1.50;82.10;;;;;;5048143;28;20470;-83
2023/12/19 05:50:06;;;;;;;2.45;2.30;;;-1.50;82.40;;;;;;5032749;28;20109;-81
2023/12/19 05:52:32;;;;;;;0.68;0.68;;;-1.50;87.40;;;;;;5036693;28;20037;-83
2023/12/19 05:54:58;;;;;;;1.58;1.40;;;-1.60;88.80;;;;;;5045390;28;20112;-83
2023/12/19 05:57:24;;;;;;;2.28;1.85;;;-1.60;96.50;;;;;;5051888;28;20107;-83
2023/12/19 05:59:50;;;;;;;3.35;1.80;;;-1.60;96.30;;;;;;5035217;28;20026;-84
2023/12/19 06:02:19;;;;;;;2.92;2.20;;;-1.60;98.80;;;;;;5035564;28;20049;-83
2023/12/19 06:04:45;;;;;;;0.63;0.63;;;-1.50;99.90;;;;;;5032273;28;20041;-83
2023/12/19 06:07:11;;;;;;;2.13;0.65;;;-1.60;99.90;;;;;;5033366;28;20033;-84
2023/12/19 06:09:38;;;;;;;0.43;0.43;;;-1.50;99.90;;;;;;5042528;28;20033;-82
2023/12/19 06:12:06;;;;;;;0.65;0.65;;;-1.50;96.90;;;;;;5056594;28;20014;-83
2023/12/19 06:14:32;;;;;;;3.58;2.40;;;-1.60;82.90;;;;;;5060060;28;20039;-82
2023/12/19 06:16:59;;;;;;;0.68;0.68;;;-1.60;78.20;;;;;;5054184;28;20048;-83
2023/12/19 06:19:25;;;;;;;3.72;2.97;;;-1.60;93.40;;;;;;5035797;28;20045;-84
2023/12/19 06:21:52;;;;;;;9.32;5.68;;;-1.50;97.70;;;;;;5031326;28;20056;-83
2023/12/19 06:24:18;;;;;;;2.78;2.58;;;-1.50;99.90;;;;;;5034408;28;20033;-83
2023/12/19 06:26:45;;;;;;;2.67;2.45;;;-1.50;99.90;;;;;;5035550;28;20036;-84
2023/12/19 06:29:11;;;;;;;6.47;5.32;;;-1.40;99.90;;;;;;5028718;28;20389;-83
2023/12/19 06:31:44;;;;;;;3.08;2.85;;;-1.40;99.90;;;;;;5036689;28;20044;-83
2023/12/19 06:34:10;;;;;;;2.50;2.38;;;-1.40;99.90;;;;;;5031973;28;20045;-81
2023/12/19 06:36:38;;;;;;;1.92;1.83;;;-1.40;99.90;;;;;;5033486;28;20030;-83
2023/12/19 06:39:06;;;;;;;0.40;0.40;;;-1.40;99.90;;;;;;5025365;28;20025;-80
2023/12/19 06:41:32;;;;;;;1.20;1.20;;;-1.40;99.90;;;;;;5031231;28;20048;-83
2023/12/19 06:43:58;;;;;;;0.80;0.63;;;-1.40;99.90;;;;;;5031779;28;20048;-83
2023/12/19 06:46:24;;;;;;;1.73;1.63;;;-1.40;99.90;;;;;;5038868;28;20402;-83
2023/12/19 06:48:51;;;;;;;2.00;1.90;;;-1.40;99.90;;;;;;5029989;28;20026;-83
2023/12/19 06:51:24;;;;;;;5.05;4.45;;;-1.50;99.90;;;;;;5030714;28;20398;-83
2023/12/19 06:53:52;;;;;;;3.45;3.13;;;-1.40;99.90;;;;;;5029763;28;20049;-83
2023/12/19 06:56:18;;;;;;;1.65;1.55;;;-1.50;99.90;;;;;;5035791;28;20036;-82
2023/12/19 06:58:44;;;;;;;3.88;1.48;;;-1.50;99.90;;;;;;5051754;28;20364;-81
2023/12/19 07:01:11;;;;;;;2.42;1.63;;;-1.50;99.90;;;;;;5029934;28;20030;-81
2023/12/19 07:03:40;;;;;;;2.03;1.88;;;-1.50;99.90;;;;;;5033384;28;20028;-81
2023/12/19 07:06:06;;;;;;;2.47;1.90;;;-1.50;99.90;;;;;;5033398;28;20048;-81
2023/12/19 07:08:32;;;;;;;0.20;0.20;;;-1.50;99.90;;;;;;5034516;28;20040;-81
2023/12/19 07:10:58;;;;;;;9.02;2.55;;;-1.40;99.90;;;;;;5025802;28;20463;-81
2023/12/19 07:13:24;;;;;;;5.15;3.53;;;-1.30;99.90;;;;;;5030145;28;20494;-81
2023/12/19 07:15:50;;;;;;;2.13;2.00;;;-1.30;99.90;;;;;;5027801;28;20041;-81
2023/12/19 07:18:16;;;;;;;6.15;2.47;;;-1.30;99.90;;;;;;5034959;28;20482;-81
2023/12/19 07:20:43;;;;;;;1.33;1.23;;;-1.30;99.90;;;;;;5016248;28;20053;-81
2023/12/19 07:23:09;;;;;;;1.55;1.50;;;-1.20;99.90;;;;;;5039296;28;20045;-81
2023/12/19 07:25:35;;;;;;;3.50;3.30;;;-1.20;99.90;;;;;;5027895;28;20054;-81
2023/12/19 07:28:02;;;;;;;2.70;2.05;;;-1.10;99.90;;;;;;5032593;28;20028;-79
2023/12/19 07:30:29;;;;;;;0.70;0.70;;;-0.90;99.90;;;;;;5027215;28;20435;-79
2023/12/19 07:32:55;;;;;;;4.32;3.53;;;-0.80;99.90;;;;;;5026197;28;20467;-80
2023/12/19 07:35:21;;;;;;;0.60;0.60;;;-0.60;99.90;;;;;;5032850;28;20044;-80
2023/12/19 07:37:47;;;;;;;3.85;3.17;;;-0.60;99.90;;;;;;5033421;28;20044;-80
2023/12/19 07:40:14;;;;;;;3.13;2.92;;;-0.40;99.90;;;;;;5034468;28;20762;-79
2023/12/19 07:42:41;;;;;;;0.73;0.73;;;-0.30;99.90;;;;;;5030952;28;20045;-80
2023/12/19 07:45:07;;;;;;;2.92;0.80;;;-0.30;99.90;;;;;;5031605;28;20042;-78
2023/12/19 07:47:34;;;;;;;2.28;1.35;;;-0.20;99.90;;;;;;5031678;28;20041;-77
2023/12/19 07:50:00;;;;;;;2.08;1.85;;;-0.10;99.90;;;;;;5032304;28;20040;-78
2023/12/19 07:52:27;;;;;;;2.40;2.15;;;0.10;99.90;;;;;;5031183;28;20037;-77
2023/12/19 07:54:54;;;;;;;3.50;2.70;;;0.20;99.90;;;;;;5026488;28;20041;-77
2023/12/19 07:57:21;;;;;;;3.95;3.22;;;0.40;99.90;;;;;;5048138;28;20048;-77
2023/12/19 07:59:48;;;;;;;4.20;3.20;;;0.60;99.90;;;;;;5033491;28;20033;-78
2023/12/19 08:02:14;;;;;;;2.53;2.42;;;0.70;99.90;;;;;;5026448;28;20041;-76
2023/12/19 08:04:42;;;;;;;3.95;2.78;;;0.80;63.70;;;;;;5031661;28;20037;-77
2023/12/19 08:07:09;;;;;;;5.68;3.60;;;0.90;1.00;;;;;;5028705;28;20025;-77
2023/12/19 08:09:35;;;;;;;0.80;0.77;;;0.90;1.00;;;;;;5032291;28;20410;-77
2023/12/19 08:12:02;;;;;;;2.45;2.35;;;1.00;1.00;;;;;;5026368;28;20033;-78
2023/12/19 08:14:28;;;;;;;1.20;1.17;;;1.00;1.00;;;;;;5030648;28;20045;-78
2023/12/19 08:16:54;;;;;;;3.38;2.85;;;1.00;99.90;;;;;;5027378;28;20037;-78
2023/12/19 08:19:21;;;;;;;1.25;1.20;;;1.10;99.90;;;;;;5031439;28;20033;-77
2023/12/19 08:21:58;;;;;;;2.97;2.75;;;1.10;99.90;;;;;;5045509;28;20048;-77
2023/12/19 08:24:25;;;;;;;14.40;6.10;;;1.10;99.90;;;;;;5029734;28;20049;-78
2023/12/19 08:26:52;;;;;;;9.32;7.20;;;1.10;99.90;;;;;;5006683;28;20038;-78
2023/12/19 08:29:18;;;;;;;2.85;2.65;;;1.20;99.90;;;;;;5021101;28;20482;-78
2023/12/19 08:31:48;;;;;;;3.10;2.90;;;1.20;99.90;;;;;;5031247;28;20463;-77
2023/12/19 08:34:18;;;;;;;2.97;2.78;;;1.20;99.90;;;;;;5030663;28;20042;-78
2023/12/19 08:36:44;;;;;;;1.73;1.63;;;1.30;99.90;;;;;;5021808;28;20053;-77
2023/12/19 08:39:11;;;;;;;2.97;2.63;;;1.30;99.90;;;;;;5030534;28;20030;-77
2023/12/19 08:41:39;;;;;;;2.58;1.90;;;1.30;99.90;;;;;;5034136;28;20041;-77
2023/12/19 08:44:07;;;;;;;1.92;1.83;;;1.30;99.90;;;;;;5030532;28;20034;-77
2023/12/19 08:46:33;;;;;;;5.40;1.63;;;1.30;99.90;;;;;;5023337;28;20053;-78
2023/12/19 08:49:00;;;;;;;1.52;1.23;;;1.30;99.90;;;;;;5027723;28;20053;-77
2023/12/19 08:51:27;;;;;;;2.25;2.05;;;1.40;99.90;;;;;;5031045;28;20041;-77
2023/12/19 08:53:54;;;;;;;3.95;1.85;;;1.40;99.90;;;;;;5033905;28;20037;-78
2023/12/19 08:56:20;;;;;;;1.67;1.30;;;1.40;99.90;;;;;;5024705;28;20493;-78
2023/12/19 08:58:48;;;;;;;2.47;2.25;;;1.40;99.90;;;;;;5029525;28;20036;-79
2023/12/19 09:01:15;;;;;;;1.10;1.08;;;1.40;99.90;;;;;;5044321;28;20462;-78
2023/12/19 09:03:41;;;;;;;3.03;2.33;;;1.40;99.90;;;;;;5025805;28;20493;-78
2023/12/19 09:06:07;;;;;;;1.35;1.20;;;1.50;99.90;;;;;;5030205;28;20029;-77
2023/12/19 09:08:33;;;;;;;3.22;2.92;;;1.50;99.90;;;;;;5044149;28;20495;-77
2023/12/19 09:11:00;;;;;;;1.23;1.17;;;1.50;99.90;;;;;;5029716;28;20033;-77
2023/12/19 09:13:26;;;;;;;1.33;1.25;;;1.50;99.90;;;;;;5033816;28;20049;-78
2023/12/19 09:15:52;;;;;;;0.70;0.70;;;1.50;99.90;;;;;;5027273;28;20041;-77
2023/12/19 09:18:18;;;;;;;0.82;0.77;;;1.60;99.90;;;;;;5035696;28;20036;-77
2023/12/19 09:20:44;;;;;;;6.38;2.22;;;1.70;99.90;;;;;;5034142;28;20053;-77
2023/12/19 09:23:11;;;;;;;6.22;2.28;;;1.70;99.90;;;;;;5052553;28;20042;-78
2023/12/19 09:25:37;;;;;;;0.73;0.73;;;1.70;99.90;;;;;;5032749;28;20041;-79
2023/12/19 09:28:03;;;;;;;2.00;1.85;;;1.80;97.20;;;;;;5038203;28;20412;-79
2023/12/19 09:30:29;;;;;;;1.25;1.15;;;1.90;80.10;;;;;;5037790;28;20034;-79
2023/12/19 09:32:55;;;;;;;1.70;1.25;;;2.00;59.80;;;;;;5021305;28;20045;-78
2023/12/19 09:35:22;;;;;;;3.03;1.42;;;2.10;48.40;;;;;;5032072;28;20045;-80
2023/12/19 09:37:48;;;;;;;2.15;1.70;;;2.20;25.50;;;;;;5033591;28;20042;-79
2023/12/19 09:40:18;;;;;;;11.25;2.95;;;2.30;16.70;;;;;;5037001;28;20030;-79
2023/12/19 09:42:44;;;;;;;1.03;1.00;;;2.40;4.80;;;;;;5031037;28;20049;-79
2023/12/19 09:45:12;;;;;;;2.30;0.95;;;2.50;1.00;;;;;;5033421;28;20041;-85
2023/12/19 09:48:13;;;;;;;1.58;1.45;;;2.60;1.00;;;;;;5037556;28;20040;-79
2023/12/19 09:50:44;;;;;;;1.17;1.08;;;2.70;1.00;;;;;;5031163;28;20049;-79
2023/12/19 09:53:13;;;;;;;1.45;1.35;;;2.80;1.00;;;;;;5030019;28;20612;-80
2023/12/19 09:55:43;;;;;;;2.08;1.25;;;2.80;1.00;;;;;;5046105;28;20033;-79
2023/12/19 09:58:12;;;;;;;2.75;1.75;;;3.00;1.00;;;;;;5032157;28;20635;-82
2023/12/19 10:00:39;;;;;;;2.78;2.55;;;3.00;1.00;;;;;;5045351;28;20049;-78
2023/12/19 10:03:06;;;;;;;1.58;1.20;;;3.00;1.00;;;;;;5034996;28;20033;-81
2023/12/19 10:05:32;;;;;;;1.85;1.63;;;3.00;1.00;;;;;;5031204;28;20029;-81
2023/12/19 10:07:59;;;;;;;0.77;0.77;;;3.00;1.00;;;;;;5035015;28;20037;-81
2023/12/19 10:10:50;;;;;;;3.75;3.40;;;3.00;1.00;;;;;;5032503;28;20034;-82
2023/12/19 10:13:30;;;;;;;;;;;2.90;1.00;;;;;;5029849;28;20044;-81
2023/12/19 10:16:11;;;;;;;2.85;2.65;;;2.90;1.00;;;;;;5044422;28;19909;-82
2023/12/19 10:18:39;;;;;;;0.20;0.20;;;3.00;1.00;;;;;;5031109;28;20104;-81
2023/12/19 10:21:10;;;;;;;3.38;3.10;;;3.10;1.00;;;;;;5036180;28;20053;-81
2023/12/19 10:23:43;;;;;;;;;;;3.20;1.00;;;;;;5024711;28;20046;-80
2023/12/19 10:26:10;;;;;;;13.73;8.15;;;3.20;1.00;;;;;;5031725;28;19964;-80
2023/12/19 10:28:37;;;;;;;9.68;8.82;;;3.30;1.00;;;;;;5035094;28;20029;-80
2023/12/19 10:31:06;;;;;;;4.80;4.35;;;3.40;1.00;;;;;;5037187;28;20044;-79
2023/12/19 10:33:42;;;;;;;3.00;2.72;;;3.50;1.00;;;;;;5030367;28;20038;-80
2023/12/19 10:36:29;;;;;;;1.40;1.30;;;3.60;1.00;;;;;;5028077;28;20032;-80
2023/12/19 10:38:58;;;;;;;1.13;1.13;;;3.50;1.00;;;;;;5029349;28;20053;-79
2023/12/19 10:41:29;;;;;;;2.47;1.20;;;3.50;1.00;;;;;;5031421;28;20033;-80
2023/12/19 10:43:57;;;;;;;;;;;3.60;1.00;;;;;;5048466;28;20045;-79
2023/12/19 10:46:26;;;;;;;1.10;1.10;;;3.50;1.00;;;;;;5029046;28;19909;-79
2023/12/19 10:49:01;;;;;;;1.17;1.00;;;3.50;1.00;;;;;;5031916;28;20360;-78
2023/12/19 10:51:33;;;;;;;2.67;2.47;;;3.50;1.00;;;;;;5028060;28;20034;-78
2023/12/19 10:54:10;;;;;;;0.40;0.40;;;3.50;1.00;;;;;;5030593;28;20064;-78
2023/12/19 10:57:06;;;;;;;2.95;1.65;;;3.50;1.00;;;;;;5025681;28;20038;-78
2023/12/19 10:59:49;;;;;;;1.90;0.93;;;3.60;1.00;;;;;;5033373;28;20040;-78
2023/12/19 11:02:35;;;;;;;2.00;1.90;;;3.60;1.00;;;;;;5035927;28;20036;-78
2023/12/19 11:05:27;;;;;;;0.95;0.95;;;3.50;1.00;;;;;;5029171;28;20038;-78
2023/12/19 11:07:58;;;;;;;1.15;1.13;;;3.50;1.00;;;;;;5030595;28;20029;-80
2023/12/19 11:10:30;;;;;;;0.90;0.90;;;3.60;1.00;;;;;;5046526;28;20041;-78
2023/12/19 11:12:56;;;;;;;1.08;0.98;;;3.60;1.00;;;;;;5033442;28;20041;-78
2023/12/19 11:15:24;;;;;;;2.85;2.67;;;3.60;1.00;;;;;;5030958;28;20041;-78
2023/12/19 11:17:58;;;;;;;5.18;4.70;;;3.60;1.00;;;;;;5028451;28;20345;-78
2023/12/19 11:20:39;;;;;;;1.80;1.70;;;3.50;1.00;;;;;;5028870;28;20046;-78
2023/12/19 11:23:20;;;;;;;1.00;1.00;;;3.50;1.00;;;;;;5030623;28;20048;-78
2023/12/19 11:26:16;;;;;;;1.58;1.48;;;3.50;1.00;;;;;;5037424;28;20266;-77
2023/12/19 11:28:44;;;;;;;2.80;2.55;;;3.50;1.00;;;;;;5015517;28;20041;-77
2023/12/19 11:31:32;;;;;;;5.90;3.17;;;3.60;1.00;;;;;;5032162;28;20029;-77
2023/12/19 11:34:25;;;;;;;2.03;1.90;;;3.60;1.00;;;;;;5036155;28;20043;-78
2023/12/19 11:37:06;;;;;;;1.60;1.00;;;3.70;1.00;;;;;;5027004;28;20472;-78
2023/12/19 11:39:40;;;;;;;1.30;1.20;;;3.80;1.00;;;;;;5032636;28;20045;-78
2023/12/19 11:42:06;;;;;;;0.85;0.80;;;4.00;1.00;;;;;;5028145;28;20045;-78
2023/12/19 11:44:34;;;;;;;1.75;1.27;;;4.00;1.00;;;;;;5028049;28;20049;-78
2023/12/19 11:47:16;;;;;;;2.95;0.98;;;4.10;1.00;;;;;;5035555;28;20041;-78
2023/12/19 11:49:43;;;;;;;0.90;0.82;;;4.10;1.00;;;;;;5035435;28;20060;-77
2023/12/19 11:52:29;;;;;;;0.95;0.80;;;4.10;1.00;;;;;;5029028;28;20038;-78
2023/12/19 11:54:56;;;;;;;0.30;0.30;;;4.10;1.00;;;;;;5027019;28;20033;-79
2023/12/19 11:57:22;;;;;;;0.45;0.45;;;4.00;1.00;;;;;;5035715;28;20029;-79
2023/12/19 11:59:51;;;;;;;2.40;1.23;;;4.00;1.00;;;;;;5030861;28;20066;-78
2023/12/19 12:02:34;;;;;;;0.50;0.50;;;4.10;1.00;;;;;;5027752;28;20041;-79
2023/12/19 12:05:19;;;;;;;3.63;0.88;;;4.10;1.00;;;;;;5029770;28;20458;-79
2023/12/19 12:07:47;;;;;;;0.52;0.52;;;4.10;1.00;;;;;;5044261;28;20052;-79
2023/12/19 12:10:21;;;;;;;0.88;0.88;;;4.20;1.00;;;;;;5031001;28;20025;-78
2023/12/19 12:12:49;;;;;;;5.30;1.45;;;4.30;1.00;;;;;;5028330;28;20070;-79
2023/12/19 12:15:19;;;;;;;3.20;1.83;;;4.30;1.00;;;;;;5031510;28;20513;-79
2023/12/19 12:17:45;;;;;;;1.00;1.00;;;4.20;1.00;;;;;;5035202;28;20037;-80
2023/12/19 12:20:12;;;;;;;6.60;4.82;;;4.20;1.00;;;;;;5033705;28;20041;-79
2023/12/19 12:22:38;;;;;;;11.65;8.68;;;4.20;1.00;;;;;;5028440;28;20028;-78
2023/12/19 12:25:05;;;;;;;8.18;7.05;;;4.10;1.00;;;;;;5029447;28;20036;-79
2023/12/19 12:27:31;;;;;;;10.55;9.30;;;4.10;1.00;;;;;;5027553;28;20029;-78
2023/12/19 12:30:00;;;;;;;2.35;2.15;;;4.10;1.00;;;;;;5030475;28;20033;-79
2023/12/19 12:32:27;;;;;;;0.40;0.40;;;4.10;1.00;;;;;;5062612;28;20453;-78
2023/12/19 12:34:53;;;;;;;0.70;0.70;;;4.10;1.00;;;;;;5069383;28;20043;-79
2023/12/19 12:37:20;;;;;;;1.40;1.02;;;4.10;1.00;;;;;;5073575;28;20040;-79
2023/12/19 12:39:47;;;;;;;3.80;1.35;;;4.20;1.00;;;;;;5075807;28;20020;-79
2023/12/19 12:42:18;;;;;;;0.75;0.75;;;4.30;1.00;;;;;;5071857;28;20071;-79
2023/12/19 12:44:45;;;;;;;0.60;0.60;;;4.30;1.00;;;;;;5066071;28;20654;-79
2023/12/19 12:47:22;;;;;;;0.82;0.73;;;4.40;1.00;;;;;;5064961;28;20044;-79
2023/12/19 12:50:01;;;;;;;1.50;1.15;;;4.40;1.00;;;;;;5075677;28;20040;-79
2023/12/19 12:52:27;;;;;;;1.15;1.10;;;4.40;1.00;;;;;;5074084;28;20036;-79
2023/12/19 12:55:03;;;;;;;1.65;0.50;;;4.40;1.00;;;;;;5066370;28;20037;-79
2023/12/19 12:57:31;;;;;;;1.10;1.00;;;4.40;1.00;;;;;;5072916;28;20047;-78
2023/12/19 12:59:57;;;;;;;1.63;1.52;;;4.40;1.00;;;;;;5073066;28;20032;-79
2023/12/19 13:02:29;;;;;;;0.38;0.38;;;4.30;1.00;;;;;;5073612;28;20032;-79